Time;durP1;ratioP1;P1;durP2;ratioP2;P2;SDS_P1;SDS_P2;PMS_P1;PMS_P2;Temp;Humidity;BMP_temperature;BMP_pressure;BME280_temperature;BME280_humidity;BME280_pressure;Samples;Min_cycle;Max_cycle;Signal;HPM_P1;HPM_P2
2023/09/28 00:01:38;;;;;;;7.25;4.40;;;;;;;16.67;100.00;101300.81;5010420;28;20029;-77
2023/09/28 00:04:06;;;;;;;8.05;4.40;;;;;;;16.66;100.00;101302.59;5046582;28;20026;-77
2023/09/28 00:06:31;;;;;;;4.95;4.22;;;;;;;16.63;100.00;101297.47;5033598;28;20077;-77
2023/09/28 00:08:56;;;;;;;4.97;4.22;;;;;;;16.61;100.00;101302.81;5020064;28;20124;-77
2023/09/28 00:11:22;;;;;;;5.68;4.25;;;;;;;16.60;100.00;101308.09;5015157;28;20025;-77
2023/09/28 00:13:47;;;;;;;8.32;4.38;;;;;;;16.57;100.00;101301.19;5041835;28;20024;-77
2023/09/28 00:16:13;;;;;;;5.88;4.90;;;;;;;16.57;100.00;101308.22;5034278;28;20123;-77
2023/09/28 00:18:38;;;;;;;5.53;3.80;;;;;;;16.58;100.00;101309.97;5011427;28;20444;-77
2023/09/28 00:21:03;;;;;;;6.72;3.85;;;;;;;16.53;100.00;101296.97;5049530;28;20030;-77
2023/09/28 00:23:29;;;;;;;7.32;3.85;;;;;;;16.56;100.00;101317.91;5009734;28;20096;-77
2023/09/28 00:25:55;;;;;;;6.80;4.25;;;;;;;16.53;100.00;101318.03;5034101;28;20044;-77
2023/09/28 00:28:20;;;;;;;4.40;4.00;;;;;;;16.55;100.00;101320.63;5014109;28;20034;-78
2023/09/28 00:30:47;;;;;;;4.20;3.80;;;;;;;16.51;100.00;101324.28;5010600;28;20041;-77
2023/09/28 00:33:12;;;;;;;5.20;4.15;;;;;;;16.49;100.00;101321.72;5015308;28;20057;-77
2023/09/28 00:35:38;;;;;;;6.00;3.90;;;;;;;16.47;100.00;101326.16;5022864;28;20026;-78
2023/09/28 00:38:03;;;;;;;6.30;4.15;;;;;;;16.43;100.00;101326.38;5038809;28;20024;-78
2023/09/28 00:40:31;;;;;;;5.82;4.07;;;;;;;16.43;100.00;101329.84;5036236;28;20033;-77
2023/09/28 00:42:58;;;;;;;5.55;3.97;;;;;;;16.43;100.00;101336.91;5020001;28;20030;-77
2023/09/28 00:45:25;;;;;;;7.13;3.90;;;;;;;16.40;100.00;101345.75;5018828;28;20029;-77
2023/09/28 00:47:52;;;;;;;6.72;4.53;;;;;;;16.38;100.00;101348.47;5044222;28;20027;-77
2023/09/28 00:50:18;;;;;;;10.88;4.32;;;;;;;16.34;100.00;101340.75;5008633;28;20038;-77
2023/09/28 00:52:46;;;;;;;12.70;4.72;;;;;;;16.35;100.00;101334.59;5035490;28;20093;-77
2023/09/28 00:55:15;;;;;;;10.15;4.60;;;;;;;16.37;100.00;101340.63;5032831;28;20037;-77
2023/09/28 00:57:45;;;;;;;7.20;4.13;;;;;;;16.34;100.00;101332.84;5020113;28;20030;-77
2023/09/28 01:00:28;;;;;;;6.65;4.20;;;;;;;16.33;100.00;101333.78;5016744;28;20471;-77
2023/09/28 01:02:55;;;;;;;;;;;;;;;16.30;100.00;101331.25;5022598;28;20083;-77
2023/09/28 01:05:22;;;;;;;8.02;4.18;;;;;;;16.24;100.00;101320.97;5017238;28;20368;-77
2023/09/28 01:07:48;;;;;;;6.55;3.85;;;;;;;16.30;100.00;101331.25;5020351;28;20033;-77
2023/09/28 01:10:17;;;;;;;5.80;4.22;;;;;;;16.27;100.00;101329.59;5031635;28;20025;-77
2023/09/28 01:12:44;;;;;;;6.78;3.95;;;;;;;16.26;100.00;101340.19;5044647;28;20025;-77
2023/09/28 01:15:11;;;;;;;7.00;4.30;;;;;;;16.24;100.00;101339.38;5018533;28;20026;-77
2023/09/28 01:17:38;;;;;;;8.20;4.13;;;;;;;16.23;100.00;101335.91;5015928;28;20029;-77
2023/09/28 01:20:18;;;;;;;5.95;4.55;;;;;;;16.21;100.00;101337.72;5023189;28;20049;-77
2023/09/28 01:22:45;;;;;;;4.97;3.83;;;;;;;16.18;100.00;101343.09;5028077;28;20029;-77
2023/09/28 01:25:11;;;;;;;5.25;4.47;;;;;;;16.15;100.00;101343.22;5022293;28;20055;-77
2023/09/28 01:27:36;;;;;;;6.22;4.10;;;;;;;16.13;100.00;101348.56;5021816;28;20059;-77
2023/09/28 01:30:03;;;;;;;7.75;4.10;;;;;;;16.14;100.00;101346.78;5025401;28;20067;-77
2023/09/28 01:32:29;;;;;;;7.00;4.15;;;;;;;16.08;100.00;101347.88;5019732;28;20037;-77
2023/09/28 01:34:55;;;;;;;5.72;4.15;;;;;;;16.06;100.00;101348.88;4994908;28;20026;-77
2023/09/28 01:37:29;;;;;;;4.82;4.32;;;;;;;16.05;100.00;101339.25;5016528;28;20025;-77
2023/09/28 01:39:54;;;;;;;5.63;4.30;;;;;;;15.99;100.00;101337.72;5012089;28;20045;-77
2023/09/28 01:42:20;;;;;;;6.35;4.13;;;;;;;16.00;100.00;101339.44;5021433;28;20100;-77
2023/09/28 01:44:45;;;;;;;5.03;4.45;;;;;;;15.93;100.00;101348.47;5015651;28;20488;-77
2023/09/28 01:47:11;;;;;;;7.05;4.22;;;;;;;15.93;100.00;101353.72;5031549;28;20052;-77
2023/09/28 01:49:36;;;;;;;5.40;3.97;;;;;;;15.92;100.00;101359.88;5025486;28;20033;-77
2023/09/28 01:52:01;;;;;;;6.97;4.00;;;;;;;15.86;100.00;101352.25;5038881;28;20022;-78
2023/09/28 01:54:27;;;;;;;10.65;4.20;;;;;;;15.82;100.00;101351.47;5024263;28;20103;-78
2023/09/28 01:56:52;;;;;;;4.97;4.22;;;;;;;15.83;100.00;101353.22;5021384;28;20033;-78
2023/09/28 01:59:18;;;;;;;6.53;4.13;;;;;;;15.79;100.00;101361.25;5021775;28;20037;-75
2023/09/28 02:01:43;;;;;;;5.20;4.28;;;;;;;15.75;100.00;101359.66;5009881;28;20038;-75
2023/09/28 02:04:08;;;;;;;6.10;4.30;;;;;;;15.74;100.00;101363.22;5022163;28;20017;-75
2023/09/28 02:06:34;;;;;;;5.40;4.60;;;;;;;15.73;100.00;101366.72;5016765;28;20363;-75
2023/09/28 02:08:59;;;;;;;7.22;5.07;;;;;;;15.69;100.00;101368.63;5009640;28;20026;-75
2023/09/28 02:11:24;;;;;;;5.25;4.05;;;;;;;15.68;100.00;101372.16;5015971;28;20124;-75
2023/09/28 02:13:50;;;;;;;6.43;4.50;;;;;;;15.67;100.00;101381.84;5021868;28;20052;-75
2023/09/28 02:16:15;;;;;;;6.75;4.28;;;;;;;15.67;100.00;101378.34;5018517;28;20065;-75
2023/09/28 02:18:42;;;;;;;6.53;4.38;;;;;;;15.65;100.00;101388.00;5009398;28;20762;-75
2023/09/28 02:21:12;;;;;;;6.07;4.80;;;;;;;15.56;100.00;101373.41;5016506;28;20024;-75
2023/09/28 02:23:37;;;;;;;5.13;4.22;;;;;;;15.55;100.00;101374.34;5000320;28;20100;-75
2023/09/28 02:26:05;;;;;;;5.65;4.50;;;;;;;15.53;100.00;101365.69;5009034;28;20045;-75
2023/09/28 02:28:31;;;;;;;6.72;4.53;;;;;;;15.49;100.00;101371.06;5049129;28;20029;-75
2023/09/28 02:31:04;;;;;;;7.20;4.25;;;;;;;15.48;100.00;101383.38;5019837;28;20381;-75
2023/09/28 02:33:29;;;;;;;6.05;4.90;;;;;;;15.45;100.00;101384.31;5020197;28;20034;-76
2023/09/28 02:35:55;;;;;;;6.97;4.80;;;;;;;15.44;100.00;101387.03;5018726;28;20376;-76
2023/09/28 02:38:20;;;;;;;5.43;4.50;;;;;;;15.42;100.00;101391.47;5016002;28;20060;-76
2023/09/28 02:40:45;;;;;;;7.63;5.00;;;;;;;15.38;100.00;101389.84;5015487;28;20077;-75
2023/09/28 02:43:11;;;;;;;6.95;4.95;;;;;;;15.34;100.00;101391.72;5018507;28;20112;-76
2023/09/28 02:45:36;;;;;;;8.43;5.03;;;;;;;15.31;100.00;101388.34;5019655;28;20026;-76
2023/09/28 02:48:02;;;;;;;6.15;4.72;;;;;;;15.29;100.00;101387.53;5008701;28;20033;-75
2023/09/28 02:50:27;;;;;;;5.13;4.63;;;;;;;15.27;100.00;101384.97;5012773;28;20022;-76
2023/09/28 02:52:53;;;;;;;4.72;4.07;;;;;;;15.25;100.00;101393.81;5018596;28;20029;-76
2023/09/28 02:55:18;;;;;;;5.68;4.82;;;;;;;15.22;100.00;101389.53;5011177;28;20105;-76
2023/09/28 02:57:43;;;;;;;6.25;4.80;;;;;;;15.18;100.00;101388.78;5013733;28;20407;-76
2023/09/28 03:02:47;;;;;;;6.40;4.78;;;;;;;15.15;100.00;101396.75;5012450;28;20053;-75
2023/09/28 03:05:12;;;;;;;8.25;5.72;;;;;;;15.10;100.00;101397.81;5020636;28;20037;-76
2023/09/28 03:07:39;;;;;;;8.35;4.80;;;;;;;15.08;100.00;101411.00;5013817;28;20101;-75
2023/09/28 03:10:06;;;;;;;7.97;5.15;;;;;;;15.10;100.00;101403.91;5034209;28;20038;-75
2023/09/28 03:12:32;;;;;;;6.00;5.22;;;;;;;15.07;100.00;101403.16;5041348;28;20108;-76
2023/09/28 03:14:57;;;;;;;7.13;5.13;;;;;;;15.03;100.00;101407.66;5026929;28;20094;-76
2023/09/28 03:17:23;;;;;;;11.05;5.65;;;;;;;15.03;100.00;101410.28;5037197;28;20052;-76
2023/09/28 03:19:48;;;;;;;7.32;5.50;;;;;;;15.02;100.00;101410.34;5025287;28;20063;-76
2023/09/28 03:22:14;;;;;;;5.35;4.82;;;;;;;14.98;100.00;101412.22;5041933;28;20030;-76
2023/09/28 03:24:39;;;;;;;7.80;5.40;;;;;;;14.99;100.00;101417.41;5022685;28;20140;-75
2023/09/28 03:27:08;;;;;;;8.30;5.22;;;;;;;14.94;100.00;101419.34;5021483;28;20444;-76
2023/09/28 03:29:33;;;;;;;7.95;5.03;;;;;;;14.94;100.00;101421.06;5019657;28;20083;-76
2023/09/28 03:31:58;;;;;;;8.25;5.60;;;;;;;14.92;100.00;101425.53;5043434;28;20029;-76
2023/09/28 03:34:24;;;;;;;7.97;5.85;;;;;;;14.89;100.00;101420.38;5034608;28;20385;-76
2023/09/28 03:36:50;;;;;;;6.03;5.43;;;;;;;14.84;100.00;101428.38;5022044;28;20029;-75
2023/09/28 03:39:16;;;;;;;8.25;5.38;;;;;;;14.85;100.00;101431.91;5016678;28;20030;-75
2023/09/28 03:41:41;;;;;;;10.18;5.50;;;;;;;14.83;100.00;101431.06;5014177;28;20044;-76
2023/09/28 03:44:07;;;;;;;7.97;5.82;;;;;;;14.83;100.00;101441.56;5017031;28;20021;-76
2023/09/28 03:46:32;;;;;;;9.05;5.68;;;;;;;14.81;100.00;101449.47;5021637;28;20096;-75
2023/09/28 03:48:58;;;;;;;9.65;5.70;;;;;;;14.80;100.00;101462.66;5020970;28;20029;-76
2023/09/28 03:51:23;;;;;;;9.05;5.78;;;;;;;14.80;100.00;101457.41;5016619;28;20121;-76
2023/09/28 03:53:48;;;;;;;9.57;5.90;;;;;;;14.76;100.00;101464.53;5018989;28;20033;-75
2023/09/28 03:56:14;;;;;;;9.20;5.63;;;;;;;14.75;100.00;101453.19;5039535;28;20034;-75
2023/09/28 03:58:39;;;;;;;12.10;5.60;;;;;;;14.77;100.00;101452.25;5016102;28;20053;-75
2023/09/28 04:01:07;;;;;;;6.45;5.43;;;;;;;14.74;100.00;101443.56;5031164;28;20094;-76
2023/09/28 04:03:34;;;;;;;11.23;6.30;;;;;;;14.72;100.00;101455.91;5008770;28;20073;-76
2023/09/28 04:06:00;;;;;;;8.20;5.85;;;;;;;14.73;100.00;101460.22;5010470;28;20528;-76
2023/09/28 04:08:25;;;;;;;8.57;6.15;;;;;;;14.72;100.00;101455.91;5014797;28;20037;-75
2023/09/28 04:10:51;;;;;;;8.38;6.05;;;;;;;14.66;100.00;101460.47;5019256;28;20109;-75
2023/09/28 04:13:17;;;;;;;8.35;5.88;;;;;;;14.68;100.00;101470.03;5027371;28;20030;-75
2023/09/28 04:15:42;;;;;;;8.18;5.70;;;;;;;14.68;100.00;101469.13;5010977;28;20058;-75
2023/09/28 04:18:08;;;;;;;12.23;6.18;;;;;;;14.63;100.00;101460.56;5014349;28;20022;-75
2023/09/28 04:20:33;;;;;;;7.28;5.85;;;;;;;14.61;100.00;101460.59;5047824;28;20023;-76
2023/09/28 04:22:58;;;;;;;8.90;6.13;;;;;;;14.60;100.00;101468.53;5031978;28;20026;-76
2023/09/28 04:25:26;;;;;;;8.95;6.53;;;;;;;14.56;100.00;101462.50;5039842;28;20048;-75
2023/09/28 04:27:52;;;;;;;9.45;6.15;;;;;;;14.52;100.00;101466.16;5041554;28;20469;-75
2023/09/28 04:30:17;;;;;;;7.53;5.80;;;;;;;14.51;100.00;101459.16;5019302;28;20064;-75
2023/09/28 04:32:43;;;;;;;13.05;6.80;;;;;;;14.45;100.00;101461.94;5006029;28;20074;-75
2023/09/28 04:35:10;;;;;;;6.95;6.03;;;;;;;14.43;100.00;101471.63;5017074;28;20058;-75
2023/09/28 04:37:37;;;;;;;6.50;5.90;;;;;;;14.39;100.00;101473.47;5034963;28;20477;-75
2023/09/28 04:40:03;;;;;;;6.93;5.68;;;;;;;14.40;100.00;101479.59;5011779;28;20052;-75
2023/09/28 04:42:28;;;;;;;7.97;6.80;;;;;;;14.35;100.00;101482.31;5008948;28;20525;-76
2023/09/28 04:44:54;;;;;;;7.82;6.50;;;;;;;14.33;100.00;101478.06;5019795;28;20124;-75
2023/09/28 04:47:19;;;;;;;9.45;6.22;;;;;;;14.26;100.00;101485.22;5008416;28;20026;-76
2023/09/28 04:49:45;;;;;;;8.93;6.60;;;;;;;14.25;100.00;101489.59;5029239;28;20377;-76
2023/09/28 04:52:11;;;;;;;9.18;6.32;;;;;;;14.19;100.00;101489.78;5023399;28;20037;-78
2023/09/28 04:54:37;;;;;;;7.68;6.35;;;;;;;14.14;100.00;101475.94;5018974;28;20433;-77
2023/09/28 04:57:03;;;;;;;9.10;6.95;;;;;;;14.16;100.00;101483.75;5025381;28;20108;-78
2023/09/28 04:59:28;;;;;;;9.98;6.88;;;;;;;14.14;100.00;101489.06;5014280;28;20055;-77
2023/09/28 05:01:54;;;;;;;8.50;7.00;;;;;;;14.10;100.00;101508.41;5017976;28;20384;-78
2023/09/28 05:04:20;;;;;;;8.05;6.53;;;;;;;14.08;100.00;101504.09;5009654;28;20024;-77
2023/09/28 05:06:46;;;;;;;10.70;6.45;;;;;;;14.06;100.00;101517.25;5015435;28;20044;-78
2023/09/28 05:09:13;;;;;;;10.02;6.47;;;;;;;14.05;100.00;101518.13;5016862;28;20021;-78
2023/09/28 05:11:38;;;;;;;10.93;6.75;;;;;;;14.03;100.00;101530.44;5045474;28;20033;-78
2023/09/28 05:14:04;;;;;;;11.85;7.18;;;;;;;14.00;100.00;101522.66;5024483;28;20026;-78
2023/09/28 05:16:29;;;;;;;7.05;6.35;;;;;;;13.96;100.00;101528.88;5045100;28;20373;-78
2023/09/28 05:18:55;;;;;;;9.55;7.20;;;;;;;13.95;100.00;101529.78;5033262;28;20034;-78
2023/09/28 05:21:20;;;;;;;12.80;6.88;;;;;;;13.89;100.00;101522.94;5039089;28;20022;-78
2023/09/28 05:23:45;;;;;;;8.10;6.38;;;;;;;13.91;100.00;101534.25;5038431;28;20028;-76
2023/09/28 05:26:11;;;;;;;10.07;6.38;;;;;;;13.88;100.00;101539.56;5047679;28;20034;-76
2023/09/28 05:28:36;;;;;;;10.57;7.25;;;;;;;13.87;100.00;101547.47;5040731;28;20050;-75
2023/09/28 05:31:03;;;;;;;11.82;6.60;;;;;;;13.86;100.00;101558.84;5047903;28;20021;-76
2023/09/28 05:33:28;;;;;;;15.32;7.38;;;;;;;13.84;100.00;101555.41;5046921;28;20057;-76
2023/09/28 05:35:54;;;;;;;9.80;6.43;;;;;;;13.81;100.00;101557.22;5025679;28;20049;-75
2023/09/28 05:38:20;;;;;;;8.75;6.07;;;;;;;13.78;100.00;101559.03;5019505;28;20466;-75
2023/09/28 05:40:46;;;;;;;8.35;6.53;;;;;;;13.75;100.00;101554.75;5019908;28;20106;-75
2023/09/28 05:43:11;;;;;;;9.13;6.65;;;;;;;13.77;100.00;101565.19;5026010;28;20026;-76
2023/09/28 05:45:36;;;;;;;11.55;6.03;;;;;;;13.74;100.00;101568.75;5016735;28;20032;-75
2023/09/28 05:48:02;;;;;;;12.88;6.45;;;;;;;13.73;100.00;101577.53;5027568;28;20501;-76
2023/09/28 05:50:27;;;;;;;15.27;5.88;;;;;;;13.70;100.00;101574.97;5025813;28;20500;-76
2023/09/28 05:52:55;;;;;;;12.25;5.25;;;;;;;13.73;100.00;101568.78;5020844;28;20043;-76
2023/09/28 05:55:22;;;;;;;10.82;5.50;;;;;;;13.74;100.00;101579.22;5027487;28;20037;-76
2023/09/28 05:57:47;;;;;;;14.07;5.65;;;;;;;13.71;100.00;101578.44;5016684;28;20078;-76
2023/09/28 06:00:13;;;;;;;11.05;6.20;;;;;;;13.75;100.00;101596.66;5018576;28;20034;-75
2023/09/28 06:02:38;;;;;;;14.63;5.88;;;;;;;13.75;100.00;101596.66;5041033;28;20392;-76
2023/09/28 06:05:04;;;;;;;9.98;5.95;;;;;;;13.77;100.00;101602.75;5027031;28;20018;-76
2023/09/28 06:07:30;;;;;;;14.27;5.70;;;;;;;13.78;100.00;101607.06;5013322;28;20465;-75
2023/09/28 06:09:55;;;;;;;15.02;5.68;;;;;;;13.76;100.00;101601.00;5055215;28;20044;-76
2023/09/28 06:12:21;;;;;;;10.68;5.45;;;;;;;13.77;100.00;101583.53;5019322;28;20028;-75
2023/09/28 06:14:46;;;;;;;13.40;5.03;;;;;;;13.78;100.00;101586.13;5030685;28;20041;-75
2023/09/28 06:17:12;;;;;;;13.50;5.47;;;;;;;13.80;100.00;101592.19;5027919;28;20393;-75
2023/09/28 06:19:37;;;;;;;10.05;5.00;;;;;;;13.77;100.00;101594.88;5015052;28;20404;-75
2023/09/28 06:22:05;;;;;;;11.13;4.95;;;;;;;13.81;100.00;101600.91;5012366;28;20026;-75
2023/09/28 06:24:31;;;;;;;12.93;5.18;;;;;;;13.80;100.00;101602.66;5032407;28;20034;-76
2023/09/28 06:26:56;;;;;;;11.95;5.65;;;;;;;13.84;100.00;101597.34;5013492;28;20034;-76
2023/09/28 06:29:21;;;;;;;13.48;5.13;;;;;;;13.85;100.00;101606.94;5017309;28;20030;-76
2023/09/28 06:31:46;;;;;;;9.82;5.25;;;;;;;13.86;100.00;101603.41;5016117;28;20048;-75
2023/09/28 06:34:12;;;;;;;14.45;4.63;;;;;;;13.89;100.00;101613.81;5025723;28;20504;-75
2023/09/28 06:36:37;;;;;;;12.57;5.07;;;;;;;13.95;100.00;101630.25;5050028;28;20081;-75
2023/09/28 06:39:04;;;;;;;15.00;5.10;;;;;;;14.00;100.00;101628.38;5022442;28;20116;-75
2023/09/28 06:41:30;;;;;;;16.75;5.30;;;;;;;14.05;100.00;101628.25;5014976;28;20070;-75
2023/09/28 06:43:55;;;;;;;11.77;5.22;;;;;;;14.08;100.00;101616.84;5019065;28;20562;-75
2023/09/28 06:46:21;;;;;;;12.25;5.00;;;;;;;14.12;100.00;101626.34;5018227;28;20034;-75
2023/09/28 06:48:46;;;;;;;13.88;4.90;;;;;;;14.16;100.00;101621.00;5016446;28;20025;-75
2023/09/28 06:51:12;;;;;;;11.75;4.95;;;;;;;14.18;100.00;101626.19;5016730;28;21043;-75
2023/09/28 06:53:40;;;;;;;15.13;5.07;;;;;;;14.26;100.00;101643.44;5008549;28;20033;-75
2023/09/28 06:56:06;;;;;;;13.02;4.78;;;;;;;14.35;100.00;101647.56;5017006;28;20030;-76
2023/09/28 06:58:31;;;;;;;13.77;5.00;;;;;;;14.43;100.00;101645.63;5017249;28;20026;-75
2023/09/28 07:00:58;;;;;;;14.05;5.35;;;;;;;14.59;100.00;101638.22;5014637;28;20448;-74
2023/09/28 07:03:23;;;;;;;12.18;5.45;;;;;;;14.73;100.00;101641.31;5043686;28;20392;-74
2023/09/28 07:05:49;;;;;;;15.30;4.25;;;;;;;14.88;100.00;101650.53;5023350;28;20034;-76
2023/09/28 07:08:14;;;;;;;16.88;4.80;;;;;;;15.09;100.00;101667.44;5039532;28;20485;-76
2023/09/28 07:10:39;;;;;;;16.08;4.35;;;;;;;15.21;100.00;101659.19;5018743;28;20037;-76
2023/09/28 07:13:06;;;;;;;18.60;4.95;;;;;;;15.35;100.00;101650.03;5022429;28;20025;-76
2023/09/28 07:15:38;;;;;;;16.67;4.70;;;;;;;15.44;100.00;101641.88;5010710;28;20062;-76
2023/09/28 07:18:03;;;;;;;22.10;5.32;;;;;;;15.45;100.00;101636.56;5003566;28;20506;-76
2023/09/28 07:20:29;;;;;;;12.10;4.18;;;;;;;15.45;100.00;101646.22;5027293;28;20041;-76
2023/09/28 07:22:55;;;;;;;14.48;4.20;;;;;;;15.40;100.00;101649.00;5016537;28;20029;-76
2023/09/28 07:25:21;;;;;;;20.30;5.30;;;;;;;15.32;100.00;101642.25;5000072;28;20067;-76
2023/09/28 07:27:49;;;;;;;13.18;4.70;;;;;;;15.22;100.00;101634.66;5043114;28;20022;-76
2023/09/28 07:30:15;;;;;;;21.35;5.07;;;;;;;15.15;100.00;101641.00;5002959;28;20112;-76
2023/09/28 07:32:41;;;;;;;17.23;5.25;;;;;;;15.12;100.00;101654.22;5021853;28;20057;-76
2023/09/28 07:35:09;;;;;;;22.67;4.95;;;;;;;15.11;100.00;101670.88;5031206;28;20049;-76
2023/09/28 07:37:35;;;;;;;18.45;5.05;;;;;;;15.09;100.00;101672.69;5019928;28;20098;-76
2023/09/28 07:40:01;;;;;;;21.10;4.53;;;;;;;15.13;100.00;101665.56;5012451;28;20111;-75
2023/09/28 07:42:27;;;;;;;16.63;4.78;;;;;;;15.23;100.00;101673.13;5010900;28;20514;-76
2023/09/28 07:44:52;;;;;;;18.25;6.00;;;;;;;15.39;100.00;101683.19;5016848;28;20022;-75
2023/09/28 07:47:19;;;;;;;18.17;5.72;;;;;;;15.49;100.00;101676.75;5016120;28;20435;-75
2023/09/28 07:49:45;;;;;;;21.90;5.88;;;;;;;15.57;100.00;101677.38;5003014;28;20037;-75
2023/09/28 07:52:11;;;;;;;18.50;4.75;;;;;;;15.67;100.00;101676.22;5002892;28;20031;-75
2023/09/28 07:54:36;;;;;;;20.67;5.72;;;;;;;15.79;100.00;101681.97;5006924;28;20086;-75
2023/09/28 07:57:04;;;;;;;19.55;4.88;;;;;;;15.88;100.00;101681.69;5025598;28;20113;-75
2023/09/28 07:59:31;;;;;;;19.55;5.88;;;;;;;16.00;100.00;101685.72;5015670;28;20364;-77
2023/09/28 08:01:56;;;;;;;19.88;5.50;;;;;;;16.07;100.00;101677.56;5019138;28;20029;-75
2023/09/28 08:04:21;;;;;;;16.88;4.50;;;;;;;16.19;100.00;101681.56;5027179;28;20385;-75
2023/09/28 08:06:47;;;;;;;20.08;5.20;;;;;;;16.26;100.00;101695.38;5015823;28;20040;-75
2023/09/28 08:09:14;;;;;;;20.55;5.05;;;;;;;16.28;100.00;101696.16;5027265;28;20026;-77
2023/09/28 08:11:40;;;;;;;17.27;4.30;;;;;;;16.31;100.00;101693.44;5022703;28;20399;-76
2023/09/28 08:14:06;;;;;;;18.42;4.30;;;;;;;16.31;100.00;101680.28;5019563;28;20029;-76
2023/09/28 08:16:31;;;;;;;28.95;5.25;;;;;;;16.41;100.00;101699.25;5025022;28;20478;-76
2023/09/28 08:18:57;;;;;;;22.23;4.85;;;;;;;16.48;100.00;101699.00;5026008;28;20053;-76
2023/09/28 08:21:24;;;;;;;23.35;4.90;;;;;;;16.58;100.00;101700.41;5022737;28;20021;-76
2023/09/28 08:23:51;;;;;;;16.40;4.63;;;;;;;16.65;100.00;101697.56;5049873;28;20029;-76
2023/09/28 08:26:16;;;;;;;19.35;4.82;;;;;;;16.80;100.00;101704.91;5027832;28;20500;-76
2023/09/28 08:28:43;;;;;;;19.42;4.40;;;;;;;16.95;100.00;101701.75;5046472;28;20226;-76
2023/09/28 08:31:10;;;;;;;18.80;4.38;;;;;;;17.11;100.00;101703.81;5020552;28;20112;-76
2023/09/28 08:33:35;;;;;;;15.32;4.03;;;;;;;17.34;100.00;101709.09;5048198;28;20031;-76
2023/09/28 08:36:01;;;;;;;17.80;4.25;;;;;;;17.51;100.00;101703.16;5006737;28;20022;-76
2023/09/28 08:38:26;;;;;;;22.95;5.78;;;;;;;17.72;100.00;101712.88;5044945;28;20055;-76
2023/09/28 08:40:59;;;;;;;21.58;5.43;;;;;;;17.88;100.00;101715.78;5036291;28;20473;-76
2023/09/28 08:43:29;;;;;;;19.50;4.35;;;;;;;18.01;100.00;101721.41;5023595;28;20027;-76
2023/09/28 08:45:56;;;;;;;20.00;4.78;;;;;;;18.13;100.00;101717.44;5022544;28;20053;-76
2023/09/28 08:48:27;;;;;;;17.02;4.70;;;;;;;18.19;100.00;101725.09;5046955;28;20094;-76
2023/09/28 08:50:59;;;;;;;21.25;5.53;;;;;;;18.30;100.00;101724.66;5022160;28;20086;-76
2023/09/28 08:53:26;;;;;;;18.80;4.95;;;;;;;18.44;100.00;101727.56;5049697;28;20054;-76
2023/09/28 08:55:52;;;;;;;20.15;5.22;;;;;;;18.51;100.00;101731.69;5020524;28;20036;-76
2023/09/28 08:58:19;;;;;;;16.65;5.20;;;;;;;18.55;100.00;101727.13;5043285;28;20110;-76
2023/09/28 09:00:44;;;;;;;24.73;5.97;;;;;;;18.46;100.00;101726.56;5017308;28;20082;-76
2023/09/28 09:03:10;;;;;;;17.60;5.00;;;;;;;18.30;100.00;101730.78;5043647;28;20033;-76
2023/09/28 09:05:39;;;;;;;20.88;5.60;;;;;;;18.14;100.00;101742.88;5028244;28;20461;-76
2023/09/28 09:08:06;;;;;;;15.05;4.70;;;;;;;18.10;100.00;101738.66;5044070;28;20079;-76
2023/09/28 09:10:31;;;;;;;22.67;5.80;;;;;;;18.00;100.00;101738.19;5032963;28;20465;-76
2023/09/28 09:12:56;;;;;;;15.57;4.43;;;;;;;17.93;100.00;101742.84;5063626;28;20085;-76
2023/09/28 09:15:22;;;;;;;15.07;5.10;;;;;;;17.75;100.00;101736.47;5034360;28;20354;-76
2023/09/28 09:17:48;;;;;;;12.60;4.15;;;;;;;17.84;100.00;101734.44;5043451;28;20033;-77
2023/09/28 09:20:13;;;;;;;19.27;5.70;;;;;;;17.83;100.00;101746.78;5011810;28;20037;-76
2023/09/28 09:22:39;;;;;;;20.38;5.35;;;;;;;17.83;100.00;101741.50;5004990;28;20030;-75
2023/09/28 09:25:05;;;;;;;21.02;5.18;;;;;;;17.87;100.00;101745.72;5015841;28;20038;-76
2023/09/28 09:27:31;;;;;;;17.63;4.97;;;;;;;17.85;100.00;101744.06;5024735;28;20033;-77
2023/09/28 09:30:08;;;;;;;22.20;5.50;;;;;;;17.83;100.00;101741.50;5027442;28;20025;-76
2023/09/28 09:32:34;;;;;;;23.02;5.47;;;;;;;17.88;100.00;101755.34;5047002;28;20029;-77
2023/09/28 09:35:00;;;;;;;20.27;5.38;;;;;;;17.88;100.00;101752.69;5021838;28;20030;-76
2023/09/28 09:37:25;;;;;;;19.65;5.53;;;;;;;18.02;100.00;101745.13;5015721;28;20113;-77
2023/09/28 09:39:51;;;;;;;23.92;5.90;;;;;;;18.09;100.00;101747.50;5020655;28;20049;-76
2023/09/28 09:42:27;;;;;;;18.42;5.53;;;;;;;18.29;100.00;101741.41;5014812;28;20026;-77
2023/09/28 09:44:52;;;;;;;18.55;4.70;;;;;;;18.45;100.00;101743.34;5006143;28;20030;-76
2023/09/28 09:47:19;;;;;;;19.13;4.85;;;;;;;18.55;100.00;101742.97;5015707;28;20044;-77
2023/09/28 09:49:46;;;;;;;15.25;4.40;;;;;;;18.64;100.00;101754.00;5030404;28;20361;-76
2023/09/28 09:52:12;;;;;;;19.58;4.72;;;;;;;18.70;100.00;101760.78;5015717;28;20033;-77
2023/09/28 09:54:38;;;;;;;14.50;4.13;;;;;;;18.71;100.00;101759.88;5027942;28;20037;-78
2023/09/28 09:57:05;;;;;;;18.83;4.95;;;;;;;18.73;100.00;101763.31;5014540;28;20055;-77
2023/09/28 09:59:34;;;;;;;20.23;4.72;;;;;;;18.64;100.00;101763.72;5018831;28;20035;-78
2023/09/28 10:02:03;;;;;;;15.38;4.85;;;;;;;18.46;100.00;101757.41;5016058;28;20477;-78
2023/09/28 10:04:29;;;;;;;20.63;4.57;;;;;;;18.38;100.00;101759.53;5014375;28;20141;-78
2023/09/28 10:06:57;;;;;;;25.40;5.10;;;;;;;18.38;100.00;101757.72;5017681;28;20029;-78
2023/09/28 10:09:23;;;;;;;17.23;4.32;;;;;;;18.49;100.00;101755.50;5023686;28;20056;-78
2023/09/28 10:11:49;;;;;;;14.35;4.45;;;;;;;18.54;100.00;101750.03;5036908;28;20053;-78
2023/09/28 10:14:16;;;;;;;16.10;4.72;;;;;;;18.71;100.00;101744.88;5018964;28;20029;-78
2023/09/28 10:16:42;;;;;;;13.13;4.25;;;;;;;18.84;100.00;101731.19;5017549;28;20346;-78
2023/09/28 10:19:09;;;;;;;13.23;4.18;;;;;;;18.95;100.00;101735.03;5015333;28;20025;-78
2023/09/28 10:21:36;;;;;;;16.75;4.40;;;;;;;19.02;100.00;101729.50;5040085;28;20022;-78
2023/09/28 10:24:11;;;;;;;21.58;4.13;;;;;;;19.06;100.00;101717.84;5025347;28;20386;-79
2023/09/28 10:26:38;;;;;;;18.58;4.93;;;;;;;19.11;100.00;101721.16;5041358;28;20038;-78
2023/09/28 10:29:08;;;;;;;16.42;4.35;;;;;;;19.18;100.00;101718.16;5026440;28;20038;-78
2023/09/28 10:31:40;;;;;;;15.90;4.28;;;;;;;19.25;100.00;101718.72;5044034;28;20019;-78
2023/09/28 10:34:07;;;;;;;13.68;3.88;;;;;;;19.30;100.00;101714.09;5026117;28;20105;-78
2023/09/28 10:36:39;;;;;;;16.92;3.83;;;;;;;19.40;100.00;101730.41;5045099;28;20110;-78
2023/09/28 10:39:17;;;;;;;14.43;4.90;;;;;;;19.63;100.00;101726.69;5026750;28;20026;-78
2023/09/28 10:41:46;;;;;;;20.33;4.50;;;;;;;19.79;100.00;101721.56;5044029;28;20119;-78
2023/09/28 10:44:16;;;;;;;14.75;4.03;;;;;;;19.79;100.00;101727.69;5025945;28;20034;-78
2023/09/28 10:46:42;;;;;;;18.02;4.78;;;;;;;19.75;100.00;101727.91;5044663;28;20073;-78
2023/09/28 10:49:08;;;;;;;18.55;4.00;;;;;;;19.74;100.00;101728.84;5025701;28;20033;-78
2023/09/28 10:51:33;;;;;;;16.55;5.25;;;;;;;19.79;100.00;101734.78;5024922;28;20098;-77
2023/09/28 10:54:03;;;;;;;19.25;4.35;;;;;;;19.76;100.00;101733.13;5010754;28;20022;-75
2023/09/28 10:56:29;;;;;;;20.52;4.75;;;;;;;19.74;100.00;101734.13;5024079;28;20038;-75
2023/09/28 10:58:56;;;;;;;13.77;3.83;;;;;;;19.76;100.00;101726.97;5021315;28;20030;-75
2023/09/28 11:01:21;;;;;;;18.50;3.90;;;;;;;19.80;100.00;101725.91;5023504;28;20029;-75
2023/09/28 11:03:49;;;;;;;17.02;4.68;;;;;;;19.83;100.00;101739.84;5008921;28;20034;-75
2023/09/28 11:06:15;;;;;;;14.40;4.28;;;;;;;19.84;100.00;101740.69;5009987;28;20037;-75
2023/09/28 11:08:42;;;;;;;19.77;4.43;;;;;;;19.95;100.00;101748.97;5016661;28;20106;-76
2023/09/28 11:11:07;;;;;;;18.73;4.13;;;;;;;20.18;100.00;101745.22;5022564;28;20021;-76